createdAt,value
2022-08-17T00:02:26.533Z,43.10
2022-08-17T00:04:54.391Z,39.40
2022-08-17T00:07:21.280Z,41.53
2022-08-17T00:09:48.418Z,38.90
2022-08-17T00:12:42.744Z,39.88
2022-08-17T00:15:04.839Z,39.30
2022-08-17T00:17:32.631Z,44.47
2022-08-17T00:20:00.242Z,42.65
2022-08-17T00:22:31.361Z,39.58
2022-08-17T00:25:03.971Z,40.38
2022-08-17T00:27:30.686Z,41.15
2022-08-17T00:29:57.422Z,38.93
2022-08-17T00:33:14.033Z,41.85
2022-08-17T00:35:13.595Z,38.70
2022-08-17T00:37:41.109Z,36.47
2022-08-17T00:40:11.726Z,37.78
2022-08-17T00:42:39.017Z,39.33
2022-08-17T00:45:08.248Z,37.28
2022-08-17T00:47:34.979Z,39.58
2022-08-17T00:50:02.260Z,35.85
2022-08-17T00:52:33.689Z,36.67
2022-08-17T00:55:01.497Z,33.80
2022-08-17T00:57:36.285Z,32.22
2022-08-17T01:00:21.320Z,37.75
2022-08-17T01:02:48.659Z,33.78
2022-08-17T01:05:19.931Z,32.22
2022-08-17T01:07:49.994Z,33.53
2022-08-17T01:10:59.360Z,32.03
2022-08-17T01:13:10.862Z,33.10
2022-08-17T01:15:41.499Z,32.60
2022-08-17T01:18:13.756Z,32.50
2022-08-17T01:20:48.953Z,31.07
2022-08-17T01:23:18.584Z,34.50
2022-08-17T01:25:57.327Z,32.67
2022-08-17T01:28:53.178Z,31.73
2022-08-17T01:31:14.652Z,30.98
2022-08-17T01:33:41.603Z,31.57
2022-08-17T01:36:08.599Z,33.67
2022-08-17T01:38:36.917Z,33.60
2022-08-17T01:41:11.203Z,33.95
2022-08-17T01:43:48.958Z,35.67
2022-08-17T01:46:24.200Z,33.60
2022-08-17T01:48:51.544Z,31.80
2022-08-17T01:51:19.773Z,32.58
2022-08-17T01:53:50.459Z,32.92
2022-08-17T01:56:21.588Z,31.85
2022-08-17T01:58:48.399Z,31.37
2022-08-17T02:01:17.859Z,34.67
2022-08-17T02:03:54.577Z,34.72
2022-08-17T02:06:29.738Z,30.58
2022-08-17T02:09:01.844Z,36.33
2022-08-17T02:11:32.220Z,35.30
2022-08-17T02:14:02.427Z,31.33
2022-08-17T02:16:29.820Z,29.20
2022-08-17T02:19:08.177Z,29.88
2022-08-17T02:21:36.905Z,31.52
2022-08-17T02:24:05.256Z,25.70
2022-08-17T02:26:31.957Z,25.35
2022-08-17T02:28:58.635Z,25.70
2022-08-17T02:31:26.514Z,31.65
2022-08-17T02:33:56.866Z,34.03
2022-08-17T02:36:31.125Z,31.50
2022-08-17T02:38:58.586Z,34.92
2022-08-17T02:41:25.446Z,38.70
2022-08-17T02:43:53.129Z,33.75
2022-08-17T02:46:19.915Z,35.33
2022-08-17T02:48:46.736Z,40.60
2022-08-17T02:51:13.785Z,42.47
2022-08-17T02:53:40.706Z,42.83
2022-08-17T02:56:07.501Z,40.00
2022-08-17T02:58:35.101Z,44.50
2022-08-17T03:01:07.076Z,31.57
2022-08-17T03:03:35.108Z,40.97
2022-08-17T03:06:02.608Z,42.35
2022-08-17T03:08:29.625Z,42.90
2022-08-17T03:10:56.476Z,42.88
2022-08-17T03:13:24.262Z,38.70
2022-08-17T03:15:51.345Z,43.53
2022-08-17T03:18:25.401Z,44.20
2022-08-17T03:20:59.134Z,44.85
2022-08-17T03:23:27.509Z,45.97
2022-08-17T03:25:56.188Z,47.83
2022-08-17T03:28:24.282Z,44.45
2022-08-17T03:30:51.764Z,42.28
2022-08-17T03:33:19.424Z,38.60
2022-08-17T03:35:47.112Z,35.45
2022-08-17T03:38:17.013Z,36.47
2022-08-17T03:40:57.380Z,34.35
2022-08-17T03:43:31.200Z,38.97
2022-08-17T03:46:34.423Z,37.35
2022-08-17T03:49:26.372Z,36.25
2022-08-17T03:52:16.705Z,37.60
2022-08-17T03:55:03.313Z,36.33
2022-08-17T03:57:31.473Z,42.33
2022-08-17T03:59:59.722Z,40.88
2022-08-17T04:02:32.504Z,44.83
2022-08-17T04:04:59.877Z,40.27
2022-08-17T04:07:30.137Z,40.25
2022-08-17T04:09:58.141Z,38.72
2022-08-17T04:12:25.632Z,41.17
2022-08-17T04:14:54.663Z,45.95
2022-08-17T04:17:27.971Z,44.57
2022-08-17T04:19:55.316Z,45.42
2022-08-17T04:22:30.354Z,47.40
2022-08-17T04:25:08.569Z,42.25
2022-08-17T04:27:35.379Z,41.15
2022-08-17T04:30:02.692Z,37.87
2022-08-17T04:33:04.504Z,39.63
2022-08-17T04:35:22.793Z,34.35
2022-08-17T04:37:49.688Z,35.35
2022-08-17T04:40:36.214Z,36.28
2022-08-17T04:43:12.325Z,42.90
2022-08-17T04:45:54.939Z,37.30
2022-08-17T04:48:36.705Z,35.47
2022-08-17T04:51:10.345Z,41.13
2022-08-17T04:53:38.395Z,37.55
2022-08-17T04:56:05.695Z,37.60
2022-08-17T04:58:32.630Z,35.08
2022-08-17T05:00:59.625Z,41.38
2022-08-17T05:03:26.547Z,38.10
2022-08-17T05:05:53.759Z,39.55
2022-08-17T05:08:21.139Z,43.10
2022-08-17T05:10:48.741Z,42.30
2022-08-17T05:13:24.721Z,41.45
2022-08-17T05:15:55.501Z,40.95
2022-08-17T05:18:22.354Z,39.67
2022-08-17T05:20:51.444Z,39.33
2022-08-17T05:23:21.113Z,41.85
2022-08-17T05:25:50.544Z,41.17
2022-08-17T05:28:19.992Z,40.88
2022-08-17T05:30:51.081Z,40.38
2022-08-17T05:33:26.862Z,42.57
2022-08-17T05:35:55.832Z,39.13
2022-08-17T05:38:24.794Z,37.42
2022-08-17T05:40:52.770Z,37.67
2022-08-17T05:43:25.937Z,37.22
2022-08-17T05:46:07.746Z,35.60
2022-08-17T05:48:44.729Z,37.20
2022-08-17T05:51:20.536Z,36.03
2022-08-17T05:53:53.093Z,35.53
2022-08-17T05:56:51.709Z,31.77
2022-08-17T05:59:48.493Z,31.20
2022-08-17T06:02:36.262Z,32.75
2022-08-17T06:05:14.372Z,35.78
2022-08-17T06:08:00.087Z,32.42
2022-08-17T06:11:02.521Z,31.98
2022-08-17T06:13:47.661Z,32.97
2022-08-17T06:16:33.676Z,33.50
2022-08-17T06:19:20.214Z,31.88
2022-08-17T06:21:51.141Z,33.40
2022-08-17T06:24:42.017Z,29.02
2022-08-17T06:27:35.717Z,31.17
2022-08-17T06:30:09.235Z,31.00
2022-08-17T06:32:47.782Z,30.20
2022-08-17T06:35:27.779Z,29.08
2022-08-17T06:38:37.816Z,27.77
2022-08-17T06:41:36.553Z,25.93
2022-08-17T06:44:49.681Z,28.63
2022-08-17T06:47:29.283Z,25.45
2022-08-17T06:50:27.340Z,27.65
2022-08-17T06:53:26.902Z,25.88
2022-08-17T06:56:02.270Z,27.70
2022-08-17T06:58:31.535Z,25.05
2022-08-17T07:01:25.118Z,25.67
2022-08-17T07:04:06.763Z,22.88
2022-08-17T07:06:51.861Z,26.42
2022-08-17T07:09:37.141Z,29.43
2022-08-17T07:12:22.134Z,23.80
2022-08-17T07:15:05.371Z,22.88
2022-08-17T07:17:47.015Z,19.92
2022-08-17T07:20:17.819Z,18.98
2022-08-17T07:23:08.629Z,20.03
2022-08-17T07:25:35.958Z,19.02
2022-08-17T07:28:07.733Z,15.30
2022-08-17T07:30:47.221Z,15.27
2022-08-17T07:33:20.039Z,14.40
2022-08-17T07:35:48.354Z,12.67
2022-08-17T07:38:24.271Z,11.18
2022-08-17T07:41:02.978Z,12.88
2022-08-17T07:43:41.466Z,12.23
2022-08-17T07:46:29.607Z,10.88
2022-08-17T07:49:03.063Z,10.77
2022-08-17T07:51:39.374Z,11.13
2022-08-17T07:54:15.295Z,10.60
2022-08-17T07:56:48.932Z,9.95
2022-08-17T07:59:23.551Z,10.88
2022-08-17T08:01:58.137Z,9.83
2022-08-17T08:05:10.124Z,8.43
2022-08-17T08:07:56.862Z,7.43
2022-08-17T08:10:44.997Z,8.55
2022-08-17T08:13:14.953Z,9.23
2022-08-17T08:15:54.009Z,10.83
2022-08-17T08:18:53.889Z,9.77
2022-08-17T08:21:10.323Z,10.82
2022-08-17T08:23:37.154Z,10.02
2022-08-17T08:26:29.533Z,12.18
2022-08-17T08:29:39.622Z,12.97
2022-08-17T08:32:24.481Z,12.73
2022-08-17T08:35:13.045Z,12.55
2022-08-17T08:38:19.905Z,11.02
2022-08-17T08:40:52.632Z,12.00
2022-08-17T08:43:50.806Z,13.13
2022-08-17T08:46:31.069Z,12.00
2022-08-17T08:49:17.659Z,11.98
2022-08-17T08:51:57.273Z,12.23
2022-08-17T08:54:43.168Z,12.93
2022-08-17T08:57:32.857Z,11.60
2022-08-17T09:00:20.073Z,11.25
2022-08-17T09:03:05.257Z,10.27
2022-08-17T09:05:43.826Z,10.05
2022-08-17T09:08:23.625Z,10.18
2022-08-17T09:11:06.435Z,10.07
2022-08-17T09:13:39.949Z,10.57
2022-08-17T09:16:29.768Z,10.40
2022-08-17T09:19:08.755Z,10.43
2022-08-17T09:21:52.693Z,12.15
2022-08-17T09:24:33.233Z,10.00
2022-08-17T09:27:18.353Z,10.73
2022-08-17T09:29:50.517Z,9.60
2022-08-17T09:32:24.894Z,9.77
2022-08-17T09:34:56.620Z,11.20
2022-08-17T09:37:29.730Z,10.83
2022-08-17T09:40:11.287Z,10.32
2022-08-17T09:42:47.397Z,9.73
2022-08-17T09:45:26.238Z,10.23
2022-08-17T09:48:25.993Z,9.25
2022-08-17T09:51:06.458Z,11.00
2022-08-17T09:53:36.746Z,12.10
2022-08-17T09:56:18.698Z,10.65
2022-08-17T09:59:14.409Z,11.73
2022-08-17T10:01:50.105Z,10.88
2022-08-17T10:04:29.368Z,9.47
2022-08-17T10:07:18.980Z,10.07
2022-08-17T10:10:04.546Z,10.50
2022-08-17T10:12:54.194Z,9.75
2022-08-17T10:15:40.835Z,12.35
2022-08-17T10:18:17.971Z,11.00
2022-08-17T10:21:22.381Z,13.48
2022-08-17T10:24:16.056Z,13.82
2022-08-17T10:26:55.994Z,13.40
2022-08-17T10:29:48.466Z,12.23
2022-08-17T10:32:44.677Z,11.47
2022-08-17T10:35:59.000Z,12.27
2022-08-17T10:38:47.254Z,12.23
2022-08-17T10:41:27.060Z,13.43
2022-08-17T10:44:38.601Z,11.57
2022-08-17T10:47:10.451Z,13.70
2022-08-17T10:49:47.948Z,14.48
2022-08-17T10:52:20.728Z,12.80
2022-08-17T10:54:47.525Z,12.82
2022-08-17T10:57:35.491Z,13.18
2022-08-17T11:00:10.398Z,15.47
2022-08-17T11:02:41.641Z,13.57
2022-08-17T11:05:45.153Z,16.25
2022-08-17T11:08:39.872Z,13.90
2022-08-17T11:11:53.620Z,14.18
2022-08-17T11:14:38.129Z,13.07
2022-08-17T11:17:11.323Z,13.50
2022-08-17T11:19:53.565Z,15.07
2022-08-17T11:22:38.449Z,15.35
2022-08-17T11:25:18.172Z,15.02
2022-08-17T11:27:53.412Z,14.03
2022-08-17T11:30:46.890Z,15.50
2022-08-17T11:33:34.024Z,15.52
2022-08-17T11:36:33.891Z,15.25
2022-08-17T11:39:18.726Z,13.50
2022-08-17T11:41:56.232Z,13.60
2022-08-17T11:44:47.958Z,15.15
2022-08-17T11:48:26.166Z,15.85
2022-08-17T11:51:28.250Z,17.85
2022-08-17T11:54:14.594Z,17.13
2022-08-17T11:56:46.569Z,19.70
2022-08-17T11:59:39.144Z,19.88
2022-08-17T12:02:32.941Z,21.38
2022-08-17T12:05:14.765Z,20.17
2022-08-17T12:08:00.562Z,20.73
2022-08-17T12:10:34.433Z,19.50
2022-08-17T12:13:13.209Z,20.38
2022-08-17T12:15:48.820Z,19.77
2022-08-17T12:18:37.486Z,20.92
2022-08-17T12:21:28.177Z,22.35
2022-08-17T12:24:23.162Z,20.07
2022-08-17T12:27:01.586Z,20.20
2022-08-17T12:29:35.962Z,18.92
2022-08-17T12:32:07.187Z,19.98
2022-08-17T12:34:40.681Z,20.48
2022-08-17T12:37:36.109Z,21.20
2022-08-17T12:40:19.986Z,20.42
2022-08-17T12:43:06.564Z,20.40
2022-08-17T12:45:36.664Z,23.17
2022-08-17T12:48:07.726Z,23.73
2022-08-17T12:50:40.283Z,24.00
2022-08-17T12:53:15.889Z,23.67
2022-08-17T12:55:44.393Z,22.30
2022-08-17T12:58:14.392Z,22.70
2022-08-17T13:00:48.600Z,21.67
2022-08-17T13:03:19.477Z,23.40
2022-08-17T13:05:52.398Z,25.83
2022-08-17T13:08:25.529Z,25.33
2022-08-17T13:11:16.227Z,25.55
2022-08-17T13:13:49.056Z,23.80
2022-08-17T13:16:19.367Z,26.07
2022-08-17T13:19:07.941Z,24.08
2022-08-17T13:21:37.597Z,25.25
2022-08-17T13:24:17.368Z,23.95
2022-08-17T13:26:59.206Z,26.23
2022-08-17T13:29:38.961Z,24.57
2022-08-17T13:32:13.477Z,25.58
2022-08-17T13:35:11.537Z,25.15
2022-08-17T13:37:37.027Z,22.98
2022-08-17T13:40:10.001Z,27.38
2022-08-17T13:42:52.001Z,23.97
2022-08-17T13:45:36.269Z,24.13
2022-08-17T13:48:14.112Z,25.20
2022-08-17T13:50:49.544Z,22.40
2022-08-17T13:53:21.541Z,22.48
2022-08-17T13:55:53.092Z,21.27
2022-08-17T13:58:22.912Z,21.88
2022-08-17T14:00:51.662Z,19.73
2022-08-17T14:03:19.338Z,21.48
2022-08-17T14:05:48.192Z,17.42
2022-08-17T14:08:16.801Z,17.43
2022-08-17T14:10:45.123Z,18.70
2022-08-17T14:13:15.311Z,15.38
2022-08-17T14:15:56.282Z,16.23
2022-08-17T14:18:55.417Z,20.40
2022-08-17T14:21:12.177Z,17.70
2022-08-17T14:23:39.325Z,18.55
2022-08-17T14:26:11.281Z,17.23
2022-08-17T14:28:38.958Z,19.30
2022-08-17T14:31:23.081Z,19.38
2022-08-17T14:33:49.984Z,19.03
2022-08-17T14:36:17.005Z,19.05
2022-08-17T14:38:45.028Z,18.45
2022-08-17T14:41:11.955Z,18.02
2022-08-17T14:43:40.039Z,16.95
2022-08-17T14:46:07.233Z,16.80
2022-08-17T14:48:35.808Z,16.80
2022-08-17T14:51:04.123Z,17.48
2022-08-17T14:53:30.951Z,19.77
2022-08-17T14:55:57.767Z,18.83
2022-08-17T14:58:24.730Z,17.87
2022-08-17T15:00:52.292Z,18.75
2022-08-17T15:03:19.437Z,19.30
2022-08-17T15:05:46.763Z,21.52
2022-08-17T15:08:13.971Z,17.90
2022-08-17T15:10:41.350Z,20.53
2022-08-17T15:13:22.558Z,20.77
2022-08-17T15:15:49.990Z,18.77
2022-08-17T15:18:16.914Z,20.25
2022-08-17T15:20:44.464Z,19.38
2022-08-17T15:23:21.391Z,19.53
2022-08-17T15:25:52.651Z,20.15
2022-08-17T15:28:22.862Z,20.08
2022-08-17T15:30:51.704Z,21.73
2022-08-17T15:33:30.178Z,18.98
2022-08-17T15:36:02.643Z,20.73
2022-08-17T15:38:39.249Z,20.13
2022-08-17T15:41:15.257Z,19.88
2022-08-17T15:43:43.762Z,21.10
2022-08-17T15:46:17.446Z,21.65
2022-08-17T15:48:47.068Z,18.40
2022-08-17T15:51:19.901Z,17.50
2022-08-17T15:54:04.452Z,19.40
2022-08-17T15:56:46.393Z,19.60
2022-08-17T15:59:13.166Z,20.52
2022-08-17T16:03:01.779Z,18.43
2022-08-17T16:04:30.811Z,18.08
2022-08-17T16:06:59.422Z,17.60
2022-08-17T16:09:26.344Z,18.98
2022-08-17T16:12:07.562Z,17.58
2022-08-17T16:15:14.020Z,21.23
2022-08-17T16:17:44.024Z,19.42
2022-08-17T16:20:19.904Z,18.85
2022-08-17T16:22:50.017Z,19.00
2022-08-17T16:25:20.997Z,18.73
2022-08-17T16:27:50.448Z,19.47
2022-08-17T16:30:18.004Z,17.17
2022-08-17T16:32:45.898Z,20.77
2022-08-17T16:35:16.948Z,19.48
2022-08-17T16:37:45.509Z,19.00
2022-08-17T16:40:13.577Z,17.93
2022-08-17T16:42:41.000Z,18.98
2022-08-17T16:45:16.686Z,18.60
2022-08-17T16:47:43.716Z,17.02
2022-08-17T16:51:13.142Z,17.77
2022-08-17T16:53:39.870Z,15.27
2022-08-17T16:56:07.192Z,16.55
2022-08-17T16:58:34.498Z,14.65
2022-08-17T17:01:01.587Z,18.15
2022-08-17T17:03:30.989Z,17.48
2022-08-17T17:06:33.507Z,17.80
2022-08-17T17:09:12.068Z,17.13
2022-08-17T17:11:45.130Z,16.50
2022-08-17T17:14:17.200Z,16.60
2022-08-17T17:16:52.503Z,17.45
2022-08-17T17:19:38.581Z,18.53
2022-08-17T17:22:24.437Z,18.73
2022-08-17T17:25:09.161Z,17.65
2022-08-17T17:27:47.300Z,17.95
2022-08-17T17:30:22.496Z,18.00
2022-08-17T17:33:24.724Z,17.77
2022-08-17T17:35:58.599Z,16.63
2022-08-17T17:38:33.289Z,18.30
2022-08-17T17:41:11.345Z,19.30
2022-08-17T17:43:40.128Z,20.35
2022-08-17T17:46:27.797Z,18.10
2022-08-17T17:48:59.543Z,19.63
2022-08-17T17:52:08.844Z,19.50
2022-08-17T17:54:49.418Z,18.77
2022-08-17T17:57:55.823Z,19.25
2022-08-17T18:00:39.052Z,22.83
2022-08-17T18:03:38.893Z,21.67
2022-08-17T18:06:05.537Z,21.58
2022-08-17T18:08:50.708Z,18.45
2022-08-17T18:11:52.698Z,19.85
2022-08-17T18:14:46.381Z,21.80
2022-08-17T18:17:14.535Z,20.42
2022-08-17T18:19:44.570Z,20.08
2022-08-17T18:22:21.661Z,19.23
2022-08-17T18:24:55.813Z,20.55
2022-08-17T18:27:31.380Z,17.13
2022-08-17T18:30:02.512Z,17.95
2022-08-17T18:32:34.153Z,18.10
2022-08-17T18:35:28.487Z,15.48
2022-08-17T18:38:30.000Z,17.88
2022-08-17T18:40:59.310Z,15.40
2022-08-17T18:43:44.392Z,16.10
2022-08-17T18:46:33.137Z,21.67
2022-08-17T18:49:03.740Z,16.52
2022-08-17T18:51:39.732Z,16.80
2022-08-17T18:54:21.951Z,18.00
2022-08-17T18:56:52.461Z,15.93
2022-08-17T18:59:39.570Z,15.93
2022-08-17T19:02:20.001Z,15.85
2022-08-17T19:05:04.173Z,17.02
2022-08-17T19:07:46.819Z,17.10
2022-08-17T19:10:22.596Z,17.60
2022-08-17T19:13:12.644Z,17.67
2022-08-17T19:16:14.060Z,19.13
2022-08-17T19:18:39.250Z,17.92
2022-08-17T19:21:33.449Z,17.03
2022-08-17T19:24:19.157Z,16.98
2022-08-17T19:26:55.439Z,19.27
2022-08-17T19:29:36.235Z,18.90
2022-08-17T19:32:04.156Z,16.45
2022-08-17T19:34:34.766Z,16.53
2022-08-17T19:37:12.960Z,17.98
2022-08-17T19:39:58.052Z,21.92
2022-08-17T19:42:50.034Z,16.35
2022-08-17T19:45:47.203Z,17.42
2022-08-17T19:48:21.146Z,17.57
2022-08-17T19:51:10.944Z,17.52
2022-08-17T19:54:04.322Z,18.48
2022-08-17T19:56:47.476Z,16.08
2022-08-17T19:59:16.866Z,16.70
2022-08-17T20:01:53.467Z,17.20
2022-08-17T20:04:31.774Z,16.42
2022-08-17T20:07:08.250Z,15.23
2022-08-17T20:09:41.711Z,15.20
2022-08-17T20:12:19.933Z,14.98
2022-08-17T20:14:54.984Z,16.63
2022-08-17T20:17:28.454Z,15.70
2022-08-17T20:20:05.543Z,15.15
2022-08-17T20:22:50.360Z,15.63
2022-08-17T20:25:53.334Z,14.15
2022-08-17T20:28:29.727Z,15.60
2022-08-17T20:30:58.293Z,14.35
2022-08-17T20:33:36.266Z,16.08
2022-08-17T20:36:24.786Z,15.38
2022-08-17T20:38:55.419Z,16.30
2022-08-17T20:41:27.467Z,18.60
2022-08-17T20:43:57.241Z,17.63
2022-08-17T20:46:36.544Z,17.00
2022-08-17T20:49:20.641Z,19.42
2022-08-17T20:52:09.602Z,17.55
2022-08-17T20:55:04.269Z,15.00
2022-08-17T20:57:36.814Z,17.60
2022-08-17T21:00:29.226Z,16.30
2022-08-17T21:03:23.779Z,16.90
2022-08-17T21:05:57.384Z,17.35
2022-08-17T21:08:53.260Z,18.43
2022-08-17T21:11:57.092Z,16.00
2022-08-17T21:14:31.555Z,15.48
2022-08-17T21:17:47.759Z,15.65
2022-08-17T21:20:39.529Z,16.42
2022-08-17T21:23:47.247Z,18.20
2022-08-17T21:26:50.276Z,17.15
2022-08-17T21:29:30.831Z,15.13
2022-08-17T21:31:59.554Z,19.58
2022-08-17T21:34:39.295Z,17.88
2022-08-17T21:37:26.371Z,17.13
2022-08-17T21:39:57.217Z,17.30
2022-08-17T21:42:34.399Z,19.55
2022-08-17T21:45:10.712Z,19.52
2022-08-17T21:47:43.439Z,19.42
2022-08-17T21:50:19.558Z,16.87
2022-08-17T21:52:47.830Z,17.85
2022-08-17T21:55:29.629Z,19.05
2022-08-17T21:58:14.804Z,19.88
2022-08-17T22:00:44.492Z,21.15
2022-08-17T22:03:24.355Z,20.37
2022-08-17T22:05:51.343Z,18.23
2022-08-17T22:08:21.899Z,19.08
2022-08-17T22:10:51.348Z,20.83
2022-08-17T22:13:19.972Z,22.42
2022-08-17T22:16:28.428Z,18.67
2022-08-17T22:18:58.829Z,17.23
2022-08-17T22:21:26.324Z,18.67
2022-08-17T22:24:05.636Z,18.42
2022-08-17T22:27:09.271Z,19.92
2022-08-17T22:29:57.252Z,14.07
2022-08-17T22:32:32.300Z,16.30
2022-08-17T22:35:19.472Z,13.57
2022-08-17T22:37:46.600Z,15.68
2022-08-17T22:40:26.538Z,13.65
2022-08-17T22:42:53.524Z,12.70
2022-08-17T22:45:20.296Z,14.27
2022-08-17T22:47:48.862Z,16.13
2022-08-17T22:50:27.363Z,14.20
2022-08-17T22:53:37.926Z,14.60
2022-08-17T22:56:24.476Z,15.13
2022-08-17T22:59:20.076Z,15.07
2022-08-17T23:02:15.043Z,12.95
2022-08-17T23:04:45.631Z,16.08
2022-08-17T23:07:12.423Z,14.95
2022-08-17T23:09:39.473Z,13.40
2022-08-17T23:12:09.545Z,14.40
2022-08-17T23:14:42.380Z,14.43
2022-08-17T23:17:09.109Z,15.35
2022-08-17T23:19:36.033Z,15.25
2022-08-17T23:22:06.229Z,15.97
2022-08-17T23:24:38.186Z,17.27
2022-08-17T23:27:07.400Z,17.48
2022-08-17T23:29:35.264Z,16.90
2022-08-17T23:32:04.832Z,16.48
2022-08-17T23:34:31.716Z,16.00
2022-08-17T23:36:58.445Z,16.15
2022-08-17T23:39:28.577Z,16.90
2022-08-17T23:41:58.913Z,14.48
2022-08-17T23:44:26.751Z,15.02
2022-08-17T23:46:54.633Z,14.37
2022-08-17T23:49:21.592Z,15.55
2022-08-17T23:51:49.493Z,16.90
2022-08-17T23:54:39.561Z,15.70
2022-08-17T23:57:06.324Z,17.30
2022-08-17T23:59:33.995Z,13.37
